Time;durP1;ratioP1;P1;durP2;ratioP2;P2;SDS_P1;SDS_P2;PMS_P1;PMS_P2;Temp;Humidity;BMP_temperature;BMP_pressure;BME280_temperature;BME280_humidity;BME280_pressure;Samples;Min_cycle;Max_cycle;Signal;HPM_P1;HPM_P2
2023/02/16 00:00:32;;;;;;;3.80;2.60;;;;;;;;;;105346;1251;61595;-61
2023/02/16 00:03:00;;;;;;;3.50;2.40;;;;;;;;;;105255;1250;61777;-62
2023/02/16 00:05:30;;;;;;;4.80;2.80;;;;;;;;;;105403;1251;61569;-62
2023/02/16 00:08:01;;;;;;;5.20;2.60;;;;;;;;;;105390;1259;61694;-63
2023/02/16 00:10:30;;;;;;;3.80;2.70;;;;;;;;;;105285;1259;61791;-63
2023/02/16 00:15:46;;;;;;;5.00;2.70;;;;;;;;;;105417;1251;61706;-63
2023/02/16 00:18:15;;;;;;;3.50;2.30;;;;;;;;;;105418;1250;61678;-62
2023/02/16 00:20:45;;;;;;;3.50;2.40;;;;;;;;;;105468;1248;61685;-63
2023/02/16 00:23:13;;;;;;;3.80;2.90;;;;;;;;;;105423;1249;61589;-62
2023/02/16 00:25:44;;;;;;;4.80;3.10;;;;;;;;;;105455;1245;62055;-63
2023/02/16 00:28:16;;;;;;;5.40;3.20;;;;;;;;;;105371;1249;61713;-62
2023/02/16 00:30:45;;;;;;;3.70;2.70;;;;;;;;;;105436;1248;61758;-62
2023/02/16 00:33:14;;;;;;;5.20;2.90;;;;;;;;;;105384;1248;61598;-62
2023/02/16 00:35:43;;;;;;;5.00;3.00;;;;;;;;;;105490;1246;61671;-62
2023/02/16 00:38:12;;;;;;;7.40;3.50;;;;;;;;;;105337;1251;61787;-63
2023/02/16 00:40:40;;;;;;;6.00;3.60;;;;;;;;;;105360;1248;61687;-63
2023/02/16 00:43:09;;;;;;;5.30;3.30;;;;;;;;;;105617;1247;61714;-63
2023/02/16 00:45:38;;;;;;;5.50;3.30;;;;;;;;;;105370;1246;61678;-63
2023/02/16 00:48:07;;;;;;;7.10;3.50;;;;;;;;;;105385;1246;61595;-62
2023/02/16 00:50:36;;;;;;;7.80;3.60;;;;;;;;;;105521;1248;61728;-62
2023/02/16 00:53:04;;;;;;;9.10;3.70;;;;;;;;;;105398;1247;61669;-63
2023/02/16 00:55:32;;;;;;;6.70;3.60;;;;;;;;;;105338;1250;61729;-63
2023/02/16 00:58:05;;;;;;;7.90;3.80;;;;;;;;;;105383;1258;61668;-63
2023/02/16 01:00:35;;;;;;;7.40;3.40;;;;;;;;;;105433;1256;61560;-63
2023/02/16 01:03:04;;;;;;;7.00;3.40;;;;;;;;;;105608;1250;61701;-63
2023/02/16 01:05:32;;;;;;;5.20;3.40;;;;;;;;;;105361;1269;61685;-63
2023/02/16 01:13:27;;;;;;;5.40;3.10;;;;;;;;;;105390;1249;61687;-65
2023/02/16 01:15:56;;;;;;;6.30;3.70;;;;;;;;;;105438;1247;61665;-64
2023/02/16 01:18:24;;;;;;;4.60;3.20;;;;;;;;;;105399;1248;61088;-64
2023/02/16 01:20:53;;;;;;;6.90;3.70;;;;;;;;;;105439;1261;61681;-65
2023/02/16 01:23:21;;;;;;;4.50;3.40;;;;;;;;;;105441;1261;61694;-64
2023/02/16 01:25:50;;;;;;;5.90;3.20;;;;;;;;;;105436;1248;61649;-64
2023/02/16 01:28:19;;;;;;;4.70;3.20;;;;;;;;;;105501;1254;61603;-64
2023/02/16 01:30:49;;;;;;;4.70;3.10;;;;;;;;;;105326;1260;61220;-65
2023/02/16 01:33:18;;;;;;;4.50;3.30;;;;;;;;;;105416;1247;61742;-64
2023/02/16 01:35:49;;;;;;;4.40;3.10;;;;;;;;;;105421;1248;61085;-64
2023/02/16 01:38:18;;;;;;;5.00;3.60;;;;;;;;;;105414;1261;61067;-64
2023/02/16 01:40:53;;;;;;;5.50;3.20;;;;;;;;;;105402;1250;61583;-64
2023/02/16 01:43:23;;;;;;;6.80;3.50;;;;;;;;;;105517;1256;61615;-64
2023/02/16 01:45:55;;;;;;;9.00;3.80;;;;;;;;;;108322;1246;61755;-65
2023/02/16 01:48:27;;;;;;;4.90;3.40;;;;;;;;;;105891;1250;61563;-64
2023/02/16 01:51:25;;;;;;;6.80;3.40;;;;;;;;;;105732;1248;61672;-64
2023/02/16 01:54:12;;;;;;;6.00;3.50;;;;;;;;;;105043;1247;61728;-64
2023/02/16 01:56:42;;;;;;;4.80;3.40;;;;;;;;;;105522;1256;61700;-65
2023/02/16 01:59:21;;;;;;;6.90;3.70;;;;;;;;;;105292;1269;61695;-64
2023/02/16 02:01:56;;;;;;;5.70;3.60;;;;;;;;;;105429;1246;61679;-64
2023/02/16 02:07:15;;;;;;;5.70;3.70;;;;;;;;;;105421;1264;61685;-64
2023/02/16 02:09:47;;;;;;;5.80;3.70;;;;;;;;;;105361;1257;61691;-64
2023/02/16 02:12:39;;;;;;;6.00;3.60;;;;;;;;;;105270;1248;61605;-63
2023/02/16 02:15:08;;;;;;;7.30;3.80;;;;;;;;;;105337;1254;61706;-64
2023/02/16 02:17:37;;;;;;;6.30;3.80;;;;;;;;;;105079;1250;61057;-64
2023/02/16 02:20:11;;;;;;;6.90;3.20;;;;;;;;;;105306;1253;61583;-64
2023/02/16 02:25:34;;;;;;;7.10;3.60;;;;;;;;;;105304;1251;61691;-64
2023/02/16 02:28:30;;;;;;;5.50;3.20;;;;;;;;;;105444;1247;61665;-64
2023/02/16 02:30:58;;;;;;;4.70;3.00;;;;;;;;;;105111;1264;61599;-64
2023/02/16 02:33:48;;;;;;;5.00;3.00;;;;;;;;;;105396;1248;61697;-66
2023/02/16 02:36:16;;;;;;;5.10;2.90;;;;;;;;;;105420;1256;61746;-64
2023/02/16 02:39:03;;;;;;;4.90;3.40;;;;;;;;;;105399;1248;61685;-65
2023/02/16 02:42:04;;;;;;;4.10;3.10;;;;;;;;;;105460;1251;61591;-65
2023/02/16 02:44:46;;;;;;;5.50;3.40;;;;;;;;;;108554;1247;61233;-64
2023/02/16 02:47:14;;;;;;;4.30;2.90;;;;;;;;;;109049;1247;60014;-64
2023/02/16 02:49:52;;;;;;;4.40;3.30;;;;;;;;;;109172;1246;60191;-64
2023/02/16 02:52:20;;;;;;;5.20;3.30;;;;;;;;;;109152;1247;59820;-64
2023/02/16 03:00:43;;;;;;;11.70;4.70;;;;;;;;;;105386;1263;61742;-64
2023/02/16 03:03:45;;;;;;;5.50;3.60;;;;;;;;;;105267;1253;61708;-64
2023/02/16 03:06:21;;;;;;;5.10;3.70;;;;;;;;;;104920;1263;61685;-64
2023/02/16 03:08:52;;;;;;;6.10;3.90;;;;;;;;;;105424;1260;61586;-64
2023/02/16 03:14:22;;;;;;;6.00;3.60;;;;;;;;;;105423;1247;61687;-62
2023/02/16 03:30:48;;;;;;;5.50;3.70;;;;;;;;;;105441;1247;61687;-64
2023/02/16 03:33:16;;;;;;;5.20;3.60;;;;;;;;;;105351;1264;61694;-65
2023/02/16 03:35:45;;;;;;;6.50;3.80;;;;;;;;;;105369;1254;61088;-64
2023/02/16 03:38:13;;;;;;;6.50;3.50;;;;;;;;;;105356;1247;61771;-64
2023/02/16 03:40:41;;;;;;;4.00;3.00;;;;;;;;;;105411;1250;61711;-64
2023/02/16 03:43:10;;;;;;;6.50;3.50;;;;;;;;;;105417;1250;61579;-64
2023/02/16 03:45:39;;;;;;;5.50;3.50;;;;;;;;;;107845;1245;60139;-63
2023/02/16 03:48:07;;;;;;;7.70;4.20;;;;;;;;;;109205;1245;59667;-63
2023/02/16 03:50:36;;;;;;;4.90;3.70;;;;;;;;;;105599;1257;61811;-62
2023/02/16 03:53:07;;;;;;;8.30;3.90;;;;;;;;;;105501;1251;61700;-62
2023/02/16 03:55:41;;;;;;;4.60;3.50;;;;;;;;;;105566;1247;61581;-63
2023/02/16 03:58:14;;;;;;;5.60;3.60;;;;;;;;;;105472;1251;61695;-63
2023/02/16 04:00:44;;;;;;;5.70;3.00;;;;;;;;;;105455;1247;61694;-64
2023/02/16 04:03:12;;;;;;;5.30;3.80;;;;;;;;;;105433;1263;61704;-63
2023/02/16 04:05:40;;;;;;;4.70;3.20;;;;;;;;;;105470;1250;61701;-64
2023/02/16 04:08:09;;;;;;;5.40;3.50;;;;;;;;;;105361;1247;61729;-63
2023/02/16 04:10:38;;;;;;;4.90;2.90;;;;;;;;;;105447;1247;61678;-63
2023/02/16 04:13:06;;;;;;;5.50;3.40;;;;;;;;;;105446;1248;61685;-64
2023/02/16 04:15:34;;;;;;;8.40;3.00;;;;;;;;;;105400;1251;61658;-64
2023/02/16 04:18:04;;;;;;;3.90;2.60;;;;;;;;;;105345;1251;61550;-64
2023/02/16 04:20:33;;;;;;;6.10;2.50;;;;;;;;;;105431;1250;61589;-64
2023/02/16 04:23:01;;;;;;;5.40;2.90;;;;;;;;;;105478;1246;61733;-64
2023/02/16 04:25:29;;;;;;;6.10;2.90;;;;;;;;;;105457;1253;61697;-64
2023/02/16 04:27:58;;;;;;;5.40;2.60;;;;;;;;;;105449;1245;61602;-64
2023/02/16 04:30:27;;;;;;;5.30;2.70;;;;;;;;;;106470;1245;61752;-64
2023/02/16 04:32:55;;;;;;;4.20;2.10;;;;;;;;;;109229;1245;60654;-65
2023/02/16 04:35:24;;;;;;;4.50;2.70;;;;;;;;;;108724;1245;60231;-63
2023/02/16 04:37:52;;;;;;;5.40;2.70;;;;;;;;;;105485;1248;61692;-63
2023/02/16 04:40:20;;;;;;;4.70;3.20;;;;;;;;;;105597;1248;61599;-65
2023/02/16 04:42:49;;;;;;;4.80;3.20;;;;;;;;;;105416;1245;61685;-64
2023/02/16 04:45:17;;;;;;;5.80;3.50;;;;;;;;;;105417;1254;61692;-63
2023/02/16 04:47:45;;;;;;;4.80;2.90;;;;;;;;;;108858;1246;59602;-65
2023/02/16 04:50:14;;;;;;;3.30;2.60;;;;;;;;;;109210;1245;59495;-65
2023/02/16 04:52:42;;;;;;;5.30;3.20;;;;;;;;;;109205;1245;60930;-64
2023/02/16 04:55:10;;;;;;;3.90;2.80;;;;;;;;;;109165;1245;59641;-63
2023/02/16 04:57:38;;;;;;;4.30;2.90;;;;;;;;;;109229;1245;59650;-65
2023/02/16 05:00:07;;;;;;;4.20;3.10;;;;;;;;;;106522;1249;61773;-63
2023/02/16 05:02:36;;;;;;;5.20;3.20;;;;;;;;;;105457;1251;61580;-63
2023/02/16 05:05:04;;;;;;;4.90;3.50;;;;;;;;;;105392;1247;61583;-62
2023/02/16 05:07:32;;;;;;;5.50;3.60;;;;;;;;;;105505;1262;61809;-62
2023/02/16 05:10:03;;;;;;;5.20;3.30;;;;;;;;;;105398;1263;61681;-62
2023/02/16 05:15:19;;;;;;;6.20;3.70;;;;;;;;;;105449;1249;61695;-63
2023/02/16 05:17:47;;;;;;;5.90;3.40;;;;;;;;;;105419;1264;61563;-61
2023/02/16 05:20:17;;;;;;;5.40;3.30;;;;;;;;;;105420;1250;61622;-61
2023/02/16 05:22:46;;;;;;;5.60;3.30;;;;;;;;;;105392;1245;62112;-62
2023/02/16 05:25:14;;;;;;;6.80;3.70;;;;;;;;;;105373;1247;61716;-62
2023/02/16 05:27:43;;;;;;;5.50;3.50;;;;;;;;;;105518;1250;61528;-63
2023/02/16 05:30:12;;;;;;;5.10;3.20;;;;;;;;;;105408;1245;61684;-63
2023/02/16 05:32:41;;;;;;;7.50;3.60;;;;;;;;;;105425;1250;61588;-63
2023/02/16 05:35:09;;;;;;;4.60;3.20;;;;;;;;;;105372;1267;61124;-64
2023/02/16 05:37:38;;;;;;;5.50;3.40;;;;;;;;;;105468;1247;61703;-65
2023/02/16 05:40:10;;;;;;;4.80;3.10;;;;;;;;;;105542;1250;61809;-64
2023/02/16 05:42:39;;;;;;;4.90;3.30;;;;;;;;;;105406;1250;61711;-65
2023/02/16 05:45:07;;;;;;;4.40;3.20;;;;;;;;;;105426;1247;61707;-65
2023/02/16 05:47:36;;;;;;;5.60;3.30;;;;;;;;;;105527;1245;61668;-65
2023/02/16 05:50:04;;;;;;;3.90;3.10;;;;;;;;;;105449;1263;61672;-64
2023/02/16 05:52:33;;;;;;;4.70;2.90;;;;;;;;;;105488;1247;61610;-64
2023/02/16 05:55:01;;;;;;;5.30;3.40;;;;;;;;;;105404;1248;62294;-63
2023/02/16 05:57:33;;;;;;;4.60;3.40;;;;;;;;;;105539;1250;61711;-63
2023/02/16 06:00:02;;;;;;;6.80;3.60;;;;;;;;;;105522;1258;61138;-64
2023/02/16 06:02:31;;;;;;;5.90;3.70;;;;;;;;;;105480;1251;61716;-64
2023/02/16 06:05:00;;;;;;;4.80;3.40;;;;;;;;;;105483;1251;61700;-64
2023/02/16 06:07:28;;;;;;;5.90;3.70;;;;;;;;;;105370;1251;61639;-65
2023/02/16 06:09:56;;;;;;;3.90;3.10;;;;;;;;;;105640;1251;61579;-68
2023/02/16 06:12:26;;;;;;;4.20;3.00;;;;;;;;;;105469;1247;61694;-70
2023/02/16 06:14:54;;;;;;;5.80;3.90;;;;;;;;;;105362;1255;61064;-69
2023/02/16 06:17:23;;;;;;;4.00;3.10;;;;;;;;;;105634;1250;61698;-70
2023/02/16 06:19:52;;;;;;;8.10;3.50;;;;;;;;;;105650;1249;61672;-69
2023/02/16 06:22:20;;;;;;;4.50;3.90;;;;;;;;;;105436;1264;61704;-70
2023/02/16 06:24:48;;;;;;;6.10;3.60;;;;;;;;;;105583;1249;61613;-68
2023/02/16 06:27:16;;;;;;;7.50;3.50;;;;;;;;;;105523;1248;61681;-70
2023/02/16 06:29:45;;;;;;;5.10;3.30;;;;;;;;;;105557;1247;61694;-68
2023/02/16 06:32:13;;;;;;;5.40;3.40;;;;;;;;;;105678;1248;61653;-69
2023/02/16 06:34:42;;;;;;;4.00;3.20;;;;;;;;;;105463;1250;61694;-66
2023/02/16 06:37:10;;;;;;;4.30;3.40;;;;;;;;;;105505;1246;61732;-67
2023/02/16 06:39:38;;;;;;;6.60;3.50;;;;;;;;;;105494;1251;61717;-66
2023/02/16 06:42:06;;;;;;;6.80;4.00;;;;;;;;;;108628;1248;59624;-67
2023/02/16 06:44:36;;;;;;;5.70;4.30;;;;;;;;;;108371;1247;61682;-66
2023/02/16 06:47:04;;;;;;;9.00;4.30;;;;;;;;;;105662;1248;61614;-66
2023/02/16 06:49:33;;;;;;;6.30;4.90;;;;;;;;;;105983;1249;61738;-68
2023/02/16 06:52:05;;;;;;;6.60;4.20;;;;;;;;;;105904;1248;61687;-66
2023/02/16 06:54:33;;;;;;;4.70;3.70;;;;;;;;;;105845;1250;61568;-70
2023/02/16 06:57:02;;;;;;;4.90;4.10;;;;;;;;;;105597;1250;61583;-69
2023/02/16 06:59:30;;;;;;;5.90;3.70;;;;;;;;;;105860;1247;61703;-66
2023/02/16 07:01:59;;;;;;;6.50;4.20;;;;;;;;;;105352;1267;61688;-65
2023/02/16 07:04:27;;;;;;;6.70;3.70;;;;;;;;;;107949;1247;61573;-68
2023/02/16 07:06:56;;;;;;;13.10;8.70;;;;;;;;;;109139;1247;59481;-66
2023/02/16 07:09:26;;;;;;;10.60;7.70;;;;;;;;;;109115;1245;61467;-66
2023/02/16 07:11:55;;;;;;;32.70;21.80;;;;;;;;;;107219;1247;61680;-67
2023/02/16 07:14:23;;;;;;;31.10;19.80;;;;;;;;;;109159;1245;59697;-67
2023/02/16 07:16:52;;;;;;;18.30;13.20;;;;;;;;;;109164;1245;59943;-69
2023/02/16 07:19:20;;;;;;;15.90;12.70;;;;;;;;;;106176;1248;61692;-67
2023/02/16 07:21:49;;;;;;;8.20;6.40;;;;;;;;;;105423;1245;61629;-66
2023/02/16 07:24:17;;;;;;;7.80;6.90;;;;;;;;;;105667;1250;61577;-67
2023/02/16 07:26:46;;;;;;;5.50;4.90;;;;;;;;;;105323;1250;402231;-67
2023/02/16 07:29:52;;;;;;;22.30;14.90;;;;;;;;;;101999;1289;600632;-66
2023/02/16 07:32:21;;;;;;;27.00;18.40;;;;;;;;;;104081;1260;60560;-66
2023/02/16 07:34:50;;;;;;;26.70;17.60;;;;;;;;;;104479;1262;60288;-67
2023/02/16 07:37:18;;;;;;;24.50;17.30;;;;;;;;;;104132;1261;60297;-69
2023/02/16 07:39:46;;;;;;;19.30;12.90;;;;;;;;;;105147;1253;60019;-66
2023/02/16 07:42:14;;;;;;;15.90;10.40;;;;;;;;;;104723;1257;60153;-62
2023/02/16 07:44:47;;;;;;;27.30;20.40;;;;;;;;;;104560;1262;60130;-61
2023/02/16 07:47:15;;;;;;;55.90;36.70;;;;;;;;;;104905;1258;60276;-60
2023/02/16 07:49:44;;;;;;;40.40;27.70;;;;;;;;;;104717;1255;60305;-61
2023/02/16 07:52:12;;;;;;;21.50;14.10;;;;;;;;;;104967;1256;60287;-62
2023/02/16 07:54:41;;;;;;;13.10;8.80;;;;;;;;;;104708;1254;60872;-62
2023/02/16 07:57:09;;;;;;;10.00;6.00;;;;;;;;;;104981;1253;60899;-60
2023/02/16 07:59:39;;;;;;;10.60;6.50;;;;;;;;;;105004;1256;60916;-60
2023/02/16 08:02:18;;;;;;;5.70;4.50;;;;;;;;;;105030;1253;60737;-61
2023/02/16 08:04:47;;;;;;;6.70;5.00;;;;;;;;;;104801;1255;61240;-61
2023/02/16 08:07:16;;;;;;;6.60;5.90;;;;;;;;;;104857;1251;60882;-62
2023/02/16 08:09:44;;;;;;;29.70;18.60;;;;;;;;;;104680;1250;61617;-63
2023/02/16 08:12:14;;;;;;;39.80;26.60;;;;;;;;;;104621;1257;60850;-61
2023/02/16 08:14:43;;;;;;;21.30;15.20;;;;;;;;;;104793;1254;60740;-61
2023/02/16 08:17:11;;;;;;;13.70;10.10;;;;;;;;;;104852;1251;60821;-61
2023/02/16 08:19:40;;;;;;;9.50;7.10;;;;;;;;;;104872;1260;60869;-63
2023/02/16 08:22:11;;;;;;;8.80;5.20;;;;;;;;;;104774;1254;60905;-62
2023/02/16 08:24:39;;;;;;;11.90;6.60;;;;;;;;;;104867;1251;60861;-62
2023/02/16 08:27:08;;;;;;;13.10;6.90;;;;;;;;;;105064;1251;60882;-63
2023/02/16 08:29:40;;;;;;;39.00;17.10;;;;;;;;;;105269;1254;60966;-64
2023/02/16 08:32:10;;;;;;;35.20;15.40;;;;;;;;;;105138;1253;60894;-62
2023/02/16 08:34:56;;;;;;;20.90;10.70;;;;;;;;;;105007;1256;61320;-64
2023/02/16 08:37:25;;;;;;;12.40;7.40;;;;;;;;;;104703;1257;60710;-67
2023/02/16 08:39:55;;;;;;;8.30;5.90;;;;;;;;;;105219;1254;60825;-62
2023/02/16 08:42:23;;;;;;;11.70;6.30;;;;;;;;;;104784;1256;60958;-62
2023/02/16 08:44:52;;;;;;;10.30;5.70;;;;;;;;;;105023;1256;60889;-62
2023/02/16 08:47:20;;;;;;;8.40;5.20;;;;;;;;;;104857;1253;60874;-61
2023/02/16 08:49:49;;;;;;;5.50;4.20;;;;;;;;;;105148;1253;60836;-61
2023/02/16 08:52:17;;;;;;;5.10;4.20;;;;;;;;;;105314;1253;60808;-62
2023/02/16 08:54:47;;;;;;;13.20;8.50;;;;;;;;;;105059;1256;60766;-61
2023/02/16 08:57:15;;;;;;;10.60;6.70;;;;;;;;;;104821;1260;60847;-63
2023/02/16 08:59:44;;;;;;;7.00;4.80;;;;;;;;;;104884;1253;60882;-63
2023/02/16 09:02:13;;;;;;;6.70;5.10;;;;;;;;;;104765;1258;60870;-70
2023/02/16 09:04:41;;;;;;;6.50;5.10;;;;;;;;;;104705;1254;60896;-71
2023/02/16 09:07:09;;;;;;;6.60;4.40;;;;;;;;;;105200;1255;60871;-70
2023/02/16 09:09:39;;;;;;;4.50;3.70;;;;;;;;;;104885;1256;60885;-70
2023/02/16 09:12:10;;;;;;;7.10;4.30;;;;;;;;;;104803;1253;60835;-68
2023/02/16 09:14:41;;;;;;;10.30;4.50;;;;;;;;;;104774;1257;60830;-67
2023/02/16 09:17:09;;;;;;;14.10;7.90;;;;;;;;;;104730;1253;60862;-63
2023/02/16 09:19:39;;;;;;;43.50;23.20;;;;;;;;;;104626;1259;60780;-66
2023/02/16 09:22:08;;;;;;;57.20;25.50;;;;;;;;;;104664;1260;60944;-61
2023/02/16 09:24:39;;;;;;;29.00;13.80;;;;;;;;;;104609;1264;60886;-62
2023/02/16 09:27:26;;;;;;;14.60;8.00;;;;;;;;;;104443;1275;60879;-67
2023/02/16 09:29:57;;;;;;;9.00;5.90;;;;;;;;;;104748;1252;60875;-68
2023/02/16 09:32:29;;;;;;;18.80;12.80;;;;;;;;;;104684;1255;60899;-68
2023/02/16 09:35:01;;;;;;;12.20;7.30;;;;;;;;;;104599;1254;60866;-69
2023/02/16 09:37:29;;;;;;;17.70;13.10;;;;;;;;;;104639;1257;60764;-68
2023/02/16 09:39:58;;;;;;;8.80;6.60;;;;;;;;;;104882;1265;60372;-68
2023/02/16 09:42:33;;;;;;;7.80;6.00;;;;;;;;;;104697;1256;60905;-69
2023/02/16 09:45:10;;;;;;;9.10;7.70;;;;;;;;;;104724;1250;61279;-68
2023/02/16 09:47:40;;;;;;;5.10;4.30;;;;;;;;;;104742;1257;60790;-69
2023/02/16 09:50:28;;;;;;;5.10;4.60;;;;;;;;;;104728;1269;60893;-69
2023/02/16 09:53:20;;;;;;;7.40;4.60;;;;;;;;;;105260;1253;60803;-69
2023/02/16 09:55:53;;;;;;;6.10;4.70;;;;;;;;;;105430;1252;60932;-68
2023/02/16 09:58:23;;;;;;;6.70;4.30;;;;;;;;;;104915;1255;61201;-67
2023/02/16 10:00:53;;;;;;;6.20;4.30;;;;;;;;;;104725;1256;60766;-67
2023/02/16 10:03:41;;;;;;;10.30;4.30;;;;;;;;;;105078;1253;60965;-67
2023/02/16 10:06:12;;;;;;;12.20;6.20;;;;;;;;;;104960;1256;60853;-67
2023/02/16 10:08:47;;;;;;;8.00;4.80;;;;;;;;;;104902;1255;60846;-67
2023/02/16 10:14:17;;;;;;;6.90;4.50;;;;;;;;;;104748;1271;60984;-67
2023/02/16 10:16:51;;;;;;;5.20;3.70;;;;;;;;;;104695;1256;60784;-68
2023/02/16 10:19:25;;;;;;;5.80;4.90;;;;;;;;;;104807;1255;60869;-69
2023/02/16 10:21:55;;;;;;;5.20;4.10;;;;;;;;;;107023;1250;60855;-69
2023/02/16 10:24:24;;;;;;;6.10;4.20;;;;;;;;;;108868;1250;58732;-67
2023/02/16 10:26:55;;;;;;;5.50;3.30;;;;;;;;;;108808;1250;59938;-67
2023/02/16 10:29:25;;;;;;;7.40;3.70;;;;;;;;;;107560;1256;60737;-67
2023/02/16 10:31:54;;;;;;;6.00;3.60;;;;;;;;;;105452;1251;60879;-68
2023/02/16 10:34:37;;;;;;;5.50;3.20;;;;;;;;;;105620;1251;60892;-68
2023/02/16 10:37:12;;;;;;;5.20;3.70;;;;;;;;;;105106;1255;60899;-68
2023/02/16 10:39:47;;;;;;;3.90;3.10;;;;;;;;;;105091;1266;60870;-69
2023/02/16 10:42:21;;;;;;;5.10;3.20;;;;;;;;;;105035;1263;60863;-66
2023/02/16 10:44:51;;;;;;;7.10;3.20;;;;;;;;;;105017;1251;60879;-70
2023/02/16 10:47:26;;;;;;;4.00;3.60;;;;;;;;;;104771;1256;60760;-69
2023/02/16 10:49:58;;;;;;;5.10;3.30;;;;;;;;;;105316;1250;60816;-67
2023/02/16 10:52:27;;;;;;;4.30;3.10;;;;;;;;;;105361;1249;60880;-74
2023/02/16 10:54:55;;;;;;;5.70;3.30;;;;;;;;;;105050;1248;60892;-69
2023/02/16 10:57:26;;;;;;;4.60;3.80;;;;;;;;;;107943;1246;60789;-68
2023/02/16 10:59:56;;;;;;;6.10;3.50;;;;;;;;;;108852;1247;61267;-69
2023/02/16 11:02:25;;;;;;;7.10;3.30;;;;;;;;;;105534;1247;60930;-70
2023/02/16 11:04:54;;;;;;;5.40;3.40;;;;;;;;;;105550;1252;60873;-65
2023/02/16 11:07:23;;;;;;;4.70;3.20;;;;;;;;;;105627;1251;60774;-63
2023/02/16 11:09:54;;;;;;;5.10;2.90;;;;;;;;;;106156;1250;61294;-67
2023/02/16 11:12:26;;;;;;;4.10;3.40;;;;;;;;;;105442;1253;60801;-64
2023/02/16 11:14:58;;;;;;;5.50;3.10;;;;;;;;;;105598;1252;61091;-64
2023/02/16 11:17:32;;;;;;;4.60;3.00;;;;;;;;;;105450;1251;60943;-65
2023/02/16 11:20:04;;;;;;;3.90;3.30;;;;;;;;;;105494;1247;60885;-69
2023/02/16 11:22:34;;;;;;;3.80;3.00;;;;;;;;;;105352;1247;62298;-65
2023/02/16 11:25:18;;;;;;;6.60;3.40;;;;;;;;;;105248;1260;60270;-65
2023/02/16 11:27:57;;;;;;;6.00;3.40;;;;;;;;;;108060;1247;60736;-66
2023/02/16 11:30:35;;;;;;;12.10;8.80;;;;;;;;;;105452;1250;60914;-65
2023/02/16 11:33:05;;;;;;;7.20;4.80;;;;;;;;;;107682;1247;60078;-66
2023/02/16 11:35:39;;;;;;;38.20;35.10;;;;;;;;;;109034;1247;58748;-66
2023/02/16 11:38:22;;;;;;;41.70;37.20;;;;;;;;;;108982;1247;60624;-63
2023/02/16 11:40:51;;;;;;;19.50;17.10;;;;;;;;;;109057;1247;60385;-65
2023/02/16 11:43:20;;;;;;;11.40;10.10;;;;;;;;;;107667;1250;61653;-66
2023/02/16 11:45:58;;;;;;;7.80;7.00;;;;;;;;;;105536;1250;60894;-66
2023/02/16 11:48:28;;;;;;;8.00;7.20;;;;;;;;;;105778;1253;61564;-69
2023/02/16 11:51:06;;;;;;;19.90;16.40;;;;;;;;;;106120;1247;61587;-65
2023/02/16 11:53:36;;;;;;;43.30;32.70;;;;;;;;;;105479;1267;61636;-65
2023/02/16 11:56:12;;;;;;;33.20;21.90;;;;;;;;;;108461;1247;61204;-66
2023/02/16 11:58:40;;;;;;;25.00;19.50;;;;;;;;;;109102;1247;59666;-67
2023/02/16 12:01:28;;;;;;;28.10;21.00;;;;;;;;;;106645;1252;61632;-66
2023/02/16 12:04:01;;;;;;;30.20;20.50;;;;;;;;;;105651;1252;61441;-65
2023/02/16 12:06:33;;;;;;;34.40;24.30;;;;;;;;;;105714;1253;62225;-65
2023/02/16 12:09:06;;;;;;;13.30;9.90;;;;;;;;;;105498;1259;61693;-66
2023/02/16 12:11:35;;;;;;;9.60;7.30;;;;;;;;;;105595;1250;61694;-63
2023/02/16 12:14:14;;;;;;;16.10;11.10;;;;;;;;;;105426;1250;61571;-65
2023/02/16 12:17:16;;;;;;;14.40;7.30;;;;;;;;;;105898;1251;61574;-67
2023/02/16 12:19:46;;;;;;;13.00;9.80;;;;;;;;;;105581;1247;61597;-68
2023/02/16 12:22:32;;;;;;;15.10;8.90;;;;;;;;;;105409;1253;61576;-68
2023/02/16 12:25:08;;;;;;;12.70;8.10;;;;;;;;;;105278;1253;61682;-68
2023/02/16 12:27:42;;;;;;;20.50;16.10;;;;;;;;;;105067;1254;61652;-67
2023/02/16 12:30:10;;;;;;;13.10;10.20;;;;;;;;;;105834;1251;61576;-66
2023/02/16 12:32:39;;;;;;;15.20;9.50;;;;;;;;;;105551;1251;61579;-67
2023/02/16 12:35:16;;;;;;;13.80;8.80;;;;;;;;;;105752;1251;61689;-67
2023/02/16 12:37:47;;;;;;;14.50;9.90;;;;;;;;;;105558;1247;61682;-67
2023/02/16 12:40:25;;;;;;;12.60;9.20;;;;;;;;;;105518;1247;61613;-63
2023/02/16 12:42:53;;;;;;;9.90;7.20;;;;;;;;;;105468;1262;61571;-64
2023/02/16 12:45:22;;;;;;;24.90;12.10;;;;;;;;;;105659;1255;61588;-64
2023/02/16 12:47:51;;;;;;;31.60;15.90;;;;;;;;;;106601;1246;60582;-63
2023/02/16 12:50:19;;;;;;;16.90;8.90;;;;;;;;;;108716;1246;60127;-66
2023/02/16 12:52:55;;;;;;;28.10;15.80;;;;;;;;;;105459;1253;61589;-64
2023/02/16 12:55:27;;;;;;;20.10;10.70;;;;;;;;;;105074;1247;61691;-64
2023/02/16 12:58:10;;;;;;;14.60;8.00;;;;;;;;;;105321;1264;61680;-64
2023/02/16 13:00:51;;;;;;;8.20;5.40;;;;;;;;;;105401;1253;61669;-67
2023/02/16 13:03:39;;;;;;;10.40;6.30;;;;;;;;;;105624;1250;61436;-68
2023/02/16 13:06:28;;;;;;;11.70;7.60;;;;;;;;;;105250;1249;61663;-62
2023/02/16 13:08:56;;;;;;;10.40;6.20;;;;;;;;;;105710;1248;62080;-63
2023/02/16 13:11:36;;;;;;;6.50;4.50;;;;;;;;;;105599;1250;61590;-65
2023/02/16 13:14:08;;;;;;;10.80;7.50;;;;;;;;;;105369;1249;61682;-65
2023/02/16 13:16:41;;;;;;;13.30;9.70;;;;;;;;;;105392;1253;61666;-63
2023/02/16 13:19:10;;;;;;;14.20;8.70;;;;;;;;;;105506;1250;61425;-62
2023/02/16 13:21:50;;;;;;;7.40;6.20;;;;;;;;;;105572;1257;61612;-61
2023/02/16 13:24:25;;;;;;;8.90;5.30;;;;;;;;;;105437;1253;61565;-61
2023/02/16 13:27:13;;;;;;;6.30;4.30;;;;;;;;;;105438;1252;61772;-61
2023/02/16 13:29:44;;;;;;;6.70;4.20;;;;;;;;;;105329;1246;61685;-61
2023/02/16 13:32:15;;;;;;;5.10;3.80;;;;;;;;;;105358;1269;61007;-61
2023/02/16 13:34:51;;;;;;;5.50;4.20;;;;;;;;;;105362;1253;61608;-61
2023/02/16 13:37:25;;;;;;;7.80;4.90;;;;;;;;;;105395;1251;61660;-61
2023/02/16 13:40:13;;;;;;;11.70;6.00;;;;;;;;;;105376;1253;61707;-62
2023/02/16 13:42:41;;;;;;;10.10;6.50;;;;;;;;;;105278;1259;61691;-63
2023/02/16 13:45:17;;;;;;;9.70;5.50;;;;;;;;;;105255;1253;61563;-61
2023/02/16 13:47:46;;;;;;;6.60;4.80;;;;;;;;;;105469;1248;61638;-62
2023/02/16 13:50:23;;;;;;;6.00;4.00;;;;;;;;;;105322;1253;61610;-62
2023/02/16 13:52:52;;;;;;;;;;;;;;;;;;105436;1248;61730;-63
2023/02/16 13:55:21;;;;;;;6.50;4.10;;;;;;;;;;105300;1250;61698;-63
2023/02/16 13:58:03;;;;;;;5.10;4.20;;;;;;;;;;105392;1251;61666;-66
2023/02/16 14:00:38;;;;;;;4.10;3.50;;;;;;;;;;105513;1251;61665;-62
2023/02/16 14:03:10;;;;;;;5.70;3.80;;;;;;;;;;105414;1251;61683;-62
2023/02/16 14:05:40;;;;;;;6.30;4.10;;;;;;;;;;105468;1252;61758;-62
2023/02/16 14:08:16;;;;;;;6.30;4.00;;;;;;;;;;105157;1247;61770;-63
2023/02/16 14:10:46;;;;;;;;;;;;;;;;;;105654;1247;61657;-60
2023/02/16 14:13:15;;;;;;;5.70;4.20;;;;;;;;;;105470;1253;61584;-60
2023/02/16 14:15:50;;;;;;;6.30;4.00;;;;;;;;;;105533;1247;61787;-62
2023/02/16 14:18:20;;;;;;;5.40;4.00;;;;;;;;;;105989;1247;61711;-62
2023/02/16 14:20:58;;;;;;;9.80;4.70;;;;;;;;;;105330;1253;61590;-63
2023/02/16 14:23:27;;;;;;;6.80;4.40;;;;;;;;;;105741;1253;61602;-63
2023/02/16 14:26:14;;;;;;;6.30;4.60;;;;;;;;;;105521;1247;61701;-62
2023/02/16 14:28:48;;;;;;;5.00;4.20;;;;;;;;;;107972;1248;61481;-63
2023/02/16 14:31:17;;;;;;;5.40;4.20;;;;;;;;;;107614;1251;60219;-62
2023/02/16 14:33:46;;;;;;;5.00;4.20;;;;;;;;;;105720;1250;61663;-62
2023/02/16 14:36:16;;;;;;;5.00;4.10;;;;;;;;;;105804;1247;61595;-62
2023/02/16 14:38:47;;;;;;;7.30;4.60;;;;;;;;;;105703;1252;61680;-62
2023/02/16 14:41:21;;;;;;;6.10;4.20;;;;;;;;;;105595;1252;61678;-62
2023/02/16 14:43:52;;;;;;;6.90;4.70;;;;;;;;;;105340;1251;61672;-62
2023/02/16 14:46:41;;;;;;;7.30;4.90;;;;;;;;;;105307;1254;61717;-62
2023/02/16 14:49:10;;;;;;;7.90;5.00;;;;;;;;;;105493;1248;61439;-61
2023/02/16 14:51:50;;;;;;;6.20;4.70;;;;;;;;;;105984;1249;61833;-63
2023/02/16 14:54:18;;;;;;;8.00;5.10;;;;;;;;;;105227;1248;61691;-62
2023/02/16 14:56:47;;;;;;;6.60;4.80;;;;;;;;;;105429;1253;62038;-64
2023/02/16 14:59:33;;;;;;;6.30;4.40;;;;;;;;;;109040;1247;59666;-61
2023/02/16 15:02:21;;;;;;;7.50;4.10;;;;;;;;;;106607;1252;61580;-72
2023/02/16 15:04:49;;;;;;;6.30;3.90;;;;;;;;;;105883;1247;61637;-66
2023/02/16 15:07:18;;;;;;;9.10;4.20;;;;;;;;;;105757;1252;61702;-66
2023/02/16 15:09:46;;;;;;;7.20;5.20;;;;;;;;;;105307;1253;61695;-68
2023/02/16 15:12:20;;;;;;;9.10;5.10;;;;;;;;;;105256;1268;60804;-71
2023/02/16 15:14:54;;;;;;;9.20;6.40;;;;;;;;;;105450;1250;61611;-66
2023/02/16 15:17:34;;;;;;;9.10;5.80;;;;;;;;;;105370;1252;61694;-67
2023/02/16 15:20:28;;;;;;;9.30;5.20;;;;;;;;;;105237;1256;62392;-67
2023/02/16 15:22:57;;;;;;;11.70;5.70;;;;;;;;;;105443;1253;61566;-65
2023/02/16 15:25:31;;;;;;;9.20;5.80;;;;;;;;;;105347;1265;61580;-66
2023/02/16 15:28:00;;;;;;;9.90;5.80;;;;;;;;;;107653;1247;61497;-65
2023/02/16 15:30:29;;;;;;;12.40;6.90;;;;;;;;;;109068;1248;61332;-67
2023/02/16 15:33:02;;;;;;;14.60;8.10;;;;;;;;;;109115;1247;59787;-66
2023/02/16 15:35:33;;;;;;;9.40;6.80;;;;;;;;;;105564;1269;61698;-65